createdAt,value
2022-10-11T00:01:26.995Z,3.38
2022-10-11T00:06:33.091Z,3.18
2022-10-11T00:11:39.183Z,2.98
2022-10-11T00:17:14.291Z,3.47
2022-10-11T00:22:20.456Z,3.43
2022-10-11T00:27:26.815Z,3.18
2022-10-11T00:32:33.229Z,3.01
2022-10-11T00:37:39.468Z,3.54
2022-10-11T00:42:45.767Z,3.22
2022-10-11T00:47:52.155Z,3.01
2022-10-11T00:52:58.563Z,3.85
2022-10-11T00:58:04.863Z,3.05
2022-10-11T01:03:11.002Z,3.44
2022-10-11T01:08:17.320Z,3.18
2022-10-11T01:13:23.414Z,3.22
2022-10-11T01:18:29.626Z,3.18
2022-10-11T01:23:35.807Z,2.97
2022-10-11T01:28:42.471Z,3.37
2022-10-11T01:33:48.895Z,3.29
2022-10-11T01:40:00.777Z,3.31
2022-10-11T01:45:06.940Z,2.91
2022-10-11T01:50:13.282Z,2.62
2022-10-11T01:55:19.401Z,2.82
2022-10-11T02:00:25.578Z,3.83
2022-10-11T02:05:31.767Z,3.46
2022-10-11T02:10:38.180Z,2.81
2022-10-11T02:15:44.564Z,2.98
2022-10-11T02:20:50.700Z,2.78
2022-10-11T02:25:57.215Z,2.62
2022-10-11T02:31:04.166Z,3.14
2022-10-11T02:36:10.250Z,2.96
2022-10-11T02:41:16.724Z,2.90
2022-10-11T02:46:22.844Z,2.96
2022-10-11T02:51:29.010Z,3.03
2022-10-11T02:56:35.148Z,2.82
2022-10-11T03:01:41.299Z,3.25
2022-10-11T03:06:47.652Z,2.87
2022-10-11T03:11:53.839Z,2.73
2022-10-11T03:17:17.334Z,2.85
2022-10-11T03:22:08.686Z,2.93
2022-10-11T03:27:14.761Z,2.78
2022-10-11T03:32:20.993Z,2.88
2022-10-11T03:37:27.066Z,3.15
2022-10-11T03:42:33.274Z,2.84
2022-10-11T03:47:39.342Z,2.91
2022-10-11T03:52:45.571Z,3.13
2022-10-11T03:57:51.637Z,3.14
2022-10-11T04:02:58.599Z,2.96
2022-10-11T04:08:08.433Z,2.79
2022-10-11T04:13:10.521Z,2.94
2022-10-11T04:18:17.037Z,2.94
2022-10-11T04:23:23.280Z,2.84
2022-10-11T04:28:29.465Z,3.16
2022-10-11T04:33:36.090Z,2.86
2022-10-11T04:38:42.600Z,3.20
2022-10-11T04:43:49.101Z,3.39
2022-10-11T04:48:55.216Z,2.79
2022-10-11T04:54:01.511Z,3.20
2022-10-11T04:59:07.661Z,2.88
2022-10-11T05:04:14.157Z,3.12
2022-10-11T05:09:20.352Z,2.91
2022-10-11T05:14:26.551Z,3.05
2022-10-11T05:19:32.607Z,3.31
2022-10-11T05:24:38.993Z,3.12
2022-10-11T05:29:45.501Z,3.77
2022-10-11T05:34:51.677Z,2.77
2022-10-11T05:39:58.621Z,2.74
2022-10-11T05:45:04.884Z,3.25
2022-10-11T05:50:10.965Z,3.14
2022-10-11T05:55:17.213Z,2.88
2022-10-11T06:00:23.762Z,2.96
2022-10-11T06:05:30.054Z,2.68
2022-10-11T06:10:36.132Z,3.28
2022-10-11T06:15:42.315Z,2.94
2022-10-11T06:20:48.378Z,2.84
2022-10-11T06:25:54.560Z,3.09
2022-10-11T06:31:00.966Z,3.29
2022-10-11T06:36:08.333Z,3.04
2022-10-11T06:41:14.453Z,3.12
2022-10-11T06:46:20.596Z,3.61
2022-10-11T06:51:26.692Z,3.46
2022-10-11T06:56:33.017Z,3.65
2022-10-11T07:01:39.195Z,3.74
2022-10-11T07:06:45.571Z,3.47
2022-10-11T07:11:51.629Z,3.80
2022-10-11T07:16:57.848Z,3.36
2022-10-11T07:22:04.242Z,3.43
2022-10-11T07:27:10.784Z,4.04
2022-10-11T07:32:16.846Z,3.61
2022-10-11T07:37:23.003Z,3.34
2022-10-11T07:42:29.095Z,3.68
2022-10-11T07:47:35.371Z,3.35
2022-10-11T07:52:41.483Z,3.64
2022-10-11T07:57:47.839Z,3.41
2022-10-11T08:02:53.997Z,3.91
2022-10-11T08:08:00.618Z,3.86
2022-10-11T08:13:06.804Z,3.60
2022-10-11T08:18:12.929Z,3.47
2022-10-11T08:23:19.094Z,3.22
2022-10-11T08:28:25.352Z,3.39
2022-10-11T08:33:31.456Z,3.07
2022-10-11T08:38:37.998Z,3.18
2022-10-11T08:43:44.411Z,3.40
2022-10-11T08:48:50.693Z,3.34
2022-10-11T08:53:57.229Z,2.98
2022-10-11T08:59:03.552Z,3.22
2022-10-11T09:04:09.610Z,3.09
2022-10-11T09:09:16.134Z,2.81
2022-10-11T09:14:22.197Z,3.44
2022-10-11T09:19:28.739Z,3.21
2022-10-11T09:24:34.854Z,3.67
2022-10-11T09:29:41.170Z,3.09
2022-10-11T09:34:47.280Z,3.18
2022-10-11T09:39:53.471Z,2.93
2022-10-11T09:44:59.558Z,2.99
2022-10-11T09:50:45.954Z,3.34
2022-10-11T09:55:52.445Z,2.73
2022-10-11T10:00:58.660Z,2.95
2022-10-11T10:06:05.359Z,3.04
2022-10-11T10:11:11.416Z,3.13
2022-10-11T10:16:17.569Z,2.59
2022-10-11T10:21:24.185Z,3.09
2022-10-11T10:26:30.572Z,2.72
2022-10-11T10:31:55.255Z,2.88
2022-10-11T10:36:42.839Z,2.63
2022-10-11T10:41:49.065Z,2.24
2022-10-11T10:46:55.231Z,2.36
2022-10-11T10:52:01.554Z,2.45
2022-10-11T10:57:07.633Z,3.02
2022-10-11T11:02:38.610Z,2.65
2022-10-11T11:07:19.415Z,2.88
2022-10-11T11:12:25.589Z,2.56
2022-10-11T11:17:31.714Z,2.63
2022-10-11T11:22:38.001Z,2.49
2022-10-11T11:27:44.415Z,2.30
2022-10-11T11:32:50.611Z,2.27
2022-10-11T11:38:02.514Z,1.93
2022-10-11T11:43:02.603Z,2.32
2022-10-11T11:48:08.776Z,2.25
2022-10-11T11:53:15.068Z,2.09
2022-10-11T11:58:21.172Z,2.35
2022-10-11T12:03:27.466Z,2.44
2022-10-11T12:08:33.518Z,2.22
2022-10-11T12:13:40.100Z,2.18
2022-10-11T12:18:46.484Z,2.32
2022-10-11T12:23:52.739Z,2.51
2022-10-11T12:28:58.911Z,2.19
2022-10-11T12:34:05.101Z,2.63
2022-10-11T12:39:11.169Z,2.97
2022-10-11T12:44:17.736Z,2.54
2022-10-11T12:49:23.820Z,2.72
2022-10-11T12:54:33.290Z,2.31
2022-10-11T12:59:36.078Z,2.26
2022-10-11T13:04:42.426Z,2.41
2022-10-11T13:09:49.296Z,2.37
2022-10-11T13:14:54.141Z,2.20
2022-10-11T13:20:00.239Z,2.43
2022-10-11T13:25:06.446Z,2.53
2022-10-11T13:30:12.549Z,2.67
2022-10-11T13:35:21.085Z,2.01
2022-10-11T13:40:24.357Z,2.62
2022-10-11T13:45:30.862Z,2.35
2022-10-11T13:50:36.976Z,2.33
2022-10-11T13:55:43.526Z,2.16
2022-10-11T14:00:49.648Z,2.20
2022-10-11T14:05:55.858Z,2.66
2022-10-11T14:11:06.338Z,2.38
2022-10-11T14:16:09.377Z,2.63
2022-10-11T14:21:14.555Z,2.68
2022-10-11T14:26:20.775Z,2.60
2022-10-11T14:31:26.856Z,2.74
2022-10-11T14:36:33.222Z,2.36
2022-10-11T14:41:39.373Z,2.16
2022-10-11T14:46:45.581Z,2.16
2022-10-11T14:51:51.697Z,1.93
2022-10-11T14:56:57.912Z,2.51
2022-10-11T15:02:04.352Z,2.19
2022-10-11T15:07:10.501Z,2.36
2022-10-11T15:12:16.903Z,2.83
2022-10-11T15:17:23.175Z,2.82
2022-10-11T15:22:29.310Z,2.91
2022-10-11T15:27:35.482Z,2.42
2022-10-11T15:32:41.870Z,2.47
2022-10-11T15:37:48.070Z,2.91
2022-10-11T15:42:54.247Z,2.66
2022-10-11T15:48:00.896Z,3.11
2022-10-11T15:53:07.424Z,2.91
2022-10-11T15:58:13.600Z,3.42
2022-10-11T16:03:19.763Z,2.85
2022-10-11T16:08:25.949Z,3.10
2022-10-11T16:13:32.009Z,2.58
2022-10-11T16:18:38.160Z,2.71
2022-10-11T16:23:44.303Z,2.61
2022-10-11T16:28:50.764Z,2.64
2022-10-11T16:33:56.940Z,2.42
2022-10-11T16:39:03.207Z,2.57
2022-10-11T16:44:09.291Z,2.94
2022-10-11T16:49:15.448Z,2.96
2022-10-11T16:54:21.516Z,3.09
2022-10-11T16:59:27.798Z,3.16
2022-10-11T17:04:33.846Z,3.58
2022-10-11T17:09:43.716Z,2.88
2022-10-11T17:15:46.360Z,3.24
2022-10-11T17:20:52.531Z,2.69
2022-10-11T17:25:58.672Z,2.88
2022-10-11T17:31:05.044Z,3.06
2022-10-11T17:36:10.512Z,4.48
2022-10-11T17:41:16.804Z,4.99
2022-10-11T17:46:23.293Z,5.27
2022-10-11T17:51:29.574Z,7.38
2022-10-11T17:56:38.206Z,8.46
2022-10-11T18:01:41.598Z,9.52
2022-10-11T18:06:48.058Z,8.67
2022-10-11T18:11:54.526Z,8.95
2022-10-11T18:17:00.570Z,10.93
2022-10-11T18:22:07.359Z,11.92
2022-10-11T18:27:12.513Z,12.47
2022-10-11T18:32:18.723Z,13.10
2022-10-11T18:37:25.112Z,11.99
2022-10-11T18:42:31.282Z,12.24
2022-10-11T18:47:37.440Z,18.76
2022-10-11T18:52:44.627Z,18.74
2022-10-11T18:57:49.384Z,16.89
2022-10-11T19:02:55.591Z,16.79
2022-10-11T19:08:02.057Z,16.08
2022-10-11T19:13:08.253Z,15.39
2022-10-11T19:18:18.284Z,14.06
2022-10-11T19:23:20.827Z,12.77
2022-10-11T19:28:26.987Z,11.94
2022-10-11T19:33:33.567Z,9.80
2022-10-11T19:38:39.949Z,9.51
2022-10-11T19:43:46.177Z,9.06
2022-10-11T19:48:52.743Z,9.12
2022-10-11T19:53:59.043Z,9.22
2022-10-11T19:59:05.210Z,8.08
2022-10-11T20:04:27.530Z,8.39
2022-10-11T20:09:29.100Z,7.71
2022-10-11T20:14:23.166Z,7.44
2022-10-11T20:19:31.092Z,6.86
2022-10-11T20:24:35.031Z,6.83
2022-10-11T20:29:41.478Z,6.95
2022-10-11T20:35:46.417Z,7.00
2022-10-11T20:40:52.568Z,6.49
2022-10-11T20:45:58.707Z,7.39
2022-10-11T20:51:05.311Z,7.37
2022-10-11T20:56:11.803Z,8.06
2022-10-11T21:01:17.968Z,7.63
2022-10-11T21:06:24.322Z,8.46
2022-10-11T21:11:30.467Z,8.59
2022-10-11T21:16:36.635Z,8.21
2022-10-11T21:21:42.698Z,8.52
2022-10-11T21:26:48.949Z,8.14
2022-10-11T21:31:55.409Z,8.72
2022-10-11T21:37:01.571Z,9.48
2022-10-11T21:42:07.659Z,9.40
2022-10-11T21:47:13.800Z,9.11
2022-10-11T21:52:20.247Z,9.64
2022-10-11T21:57:26.572Z,10.12
2022-10-11T22:02:32.953Z,10.45
2022-10-11T22:07:38.827Z,10.38
2022-10-11T22:12:44.943Z,10.09
2022-10-11T22:17:51.167Z,9.64
2022-10-11T22:22:57.668Z,10.18
2022-10-11T22:28:04.229Z,10.10
2022-10-11T22:33:10.291Z,9.70
2022-10-11T22:38:16.516Z,9.53
2022-10-11T22:43:22.920Z,9.41
2022-10-11T22:48:29.073Z,9.12
2022-10-11T22:53:35.224Z,9.44
2022-10-11T22:58:41.684Z,9.24
2022-10-11T23:03:47.811Z,8.96
2022-10-11T23:08:53.969Z,9.02
2022-10-11T23:14:00.372Z,9.48
2022-10-11T23:19:09.286Z,8.74
2022-10-11T23:24:15.404Z,8.71
2022-10-11T23:29:21.767Z,9.10
2022-10-11T23:34:27.862Z,8.57
2022-10-11T23:39:34.025Z,8.29
2022-10-11T23:44:40.084Z,8.92
2022-10-11T23:49:46.676Z,8.28
2022-10-11T23:54:52.737Z,8.83
2022-10-11T23:59:59.083Z,8.54
